sensor_id;sensor_type;location;lat;lon;timestamp;temperature;humidity
6270;DHT22;3168;51.684;6.954;2023-02-12T00:00:32;7.60;32.20
6270;DHT22;3168;51.684;6.954;2023-02-12T00:02:57;7.50;32.00
6270;DHT22;3168;51.684;6.954;2023-02-12T00:05:23;7.50;32.70
6270;DHT22;3168;51.684;6.954;2023-02-12T00:07:49;7.60;32.50
6270;DHT22;3168;51.684;6.954;2023-02-12T00:10:15;7.60;33.50
6270;DHT22;3168;51.684;6.954;2023-02-12T00:12:41;7.60;32.20
6270;DHT22;3168;51.684;6.954;2023-02-12T00:15:08;7.60;30.60
6270;DHT22;3168;51.684;6.954;2023-02-12T00:17:34;7.60;30.70
6270;DHT22;3168;51.684;6.954;2023-02-12T00:20:00;7.60;30.30
6270;DHT22;3168;51.684;6.954;2023-02-12T00:22:26;7.60;29.80
6270;DHT22;3168;51.684;6.954;2023-02-12T00:24:51;7.60;29.00
6270;DHT22;3168;51.684;6.954;2023-02-12T00:27:17;7.60;28.60
6270;DHT22;3168;51.684;6.954;2023-02-12T00:29:43;7.60;29.20
6270;DHT22;3168;51.684;6.954;2023-02-12T00:32:09;7.40;27.90
6270;DHT22;3168;51.684;6.954;2023-02-12T00:34:35;7.60;28.40
6270;DHT22;3168;51.684;6.954;2023-02-12T00:37:01;7.60;27.70
6270;DHT22;3168;51.684;6.954;2023-02-12T00:39:26;7.60;27.40
6270;DHT22;3168;51.684;6.954;2023-02-12T00:41:52;7.60;26.20
6270;DHT22;3168;51.684;6.954;2023-02-12T00:44:18;7.60;26.10
6270;DHT22;3168;51.684;6.954;2023-02-12T00:46:44;7.60;24.30
6270;DHT22;3168;51.684;6.954;2023-02-12T00:49:10;7.60;24.10
6270;DHT22;3168;51.684;6.954;2023-02-12T00:51:36;7.50;24.60
6270;DHT22;3168;51.684;6.954;2023-02-12T00:54:02;7.50;24.10
6270;DHT22;3168;51.684;6.954;2023-02-12T00:56:28;7.50;25.10
6270;DHT22;3168;51.684;6.954;2023-02-12T00:58:54;7.60;26.70
6270;DHT22;3168;51.684;6.954;2023-02-12T01:01:20;7.50;24.10
6270;DHT22;3168;51.684;6.954;2023-02-12T01:03:46;7.50;24.10
6270;DHT22;3168;51.684;6.954;2023-02-12T01:06:12;7.50;24.10
6270;DHT22;3168;51.684;6.954;2023-02-12T01:08:38;7.50;24.10
6270;DHT22;3168;51.684;6.954;2023-02-12T01:11:04;7.50;23.70
6270;DHT22;3168;51.684;6.954;2023-02-12T01:13:31;7.50;24.10
6270;DHT22;3168;51.684;6.954;2023-02-12T01:16:00;7.50;22.10
6270;DHT22;3168;51.684;6.954;2023-02-12T01:18:25;7.50;23.80
6270;DHT22;3168;51.684;6.954;2023-02-12T01:20:51;7.60;20.90
6270;DHT22;3168;51.684;6.954;2023-02-12T01:23:17;7.50;21.50
6270;DHT22;3168;51.684;6.954;2023-02-12T01:25:43;7.50;20.00
6270;DHT22;3168;51.684;6.954;2023-02-12T01:28:09;7.50;20.30
6270;DHT22;3168;51.684;6.954;2023-02-12T01:30:35;7.50;20.30
6270;DHT22;3168;51.684;6.954;2023-02-12T01:33:01;7.50;20.20
6270;DHT22;3168;51.684;6.954;2023-02-12T01:35:27;7.50;20.80
6270;DHT22;3168;51.684;6.954;2023-02-12T01:37:53;7.40;21.30
6270;DHT22;3168;51.684;6.954;2023-02-12T01:40:19;7.50;20.20
6270;DHT22;3168;51.684;6.954;2023-02-12T01:42:45;7.40;22.00
6270;DHT22;3168;51.684;6.954;2023-02-12T01:45:36;7.40;20.20
6270;DHT22;3168;51.684;6.954;2023-02-12T01:47:52;7.40;20.70
6270;DHT22;3168;51.684;6.954;2023-02-12T01:50:18;7.40;19.80
6270;DHT22;3168;51.684;6.954;2023-02-12T01:52:45;7.40;20.50
6270;DHT22;3168;51.684;6.954;2023-02-12T01:55:10;7.40;21.60
6270;DHT22;3168;51.684;6.954;2023-02-12T01:57:38;7.40;22.70
6270;DHT22;3168;51.684;6.954;2023-02-12T02:00:03;7.40;23.10
6270;DHT22;3168;51.684;6.954;2023-02-12T02:02:28;7.40;22.70
6270;DHT22;3168;51.684;6.954;2023-02-12T02:04:56;7.40;23.80
6270;DHT22;3168;51.684;6.954;2023-02-12T02:07:20;7.30;22.80
6270;DHT22;3168;51.684;6.954;2023-02-12T02:09:48;7.40;24.10
6270;DHT22;3168;51.684;6.954;2023-02-12T02:12:13;7.40;24.00
6270;DHT22;3168;51.684;6.954;2023-02-12T02:14:45;7.40;23.90
6270;DHT22;3168;51.684;6.954;2023-02-12T02:17:21;7.40;23.30
6270;DHT22;3168;51.684;6.954;2023-02-12T02:22:41;7.40;21.70
6270;DHT22;3168;51.684;6.954;2023-02-12T02:25:31;7.40;21.30
6270;DHT22;3168;51.684;6.954;2023-02-12T02:28:17;7.30;20.90
6270;DHT22;3168;51.684;6.954;2023-02-12T02:30:47;7.30;22.70
6270;DHT22;3168;51.684;6.954;2023-02-12T02:33:23;7.30;24.00
6270;DHT22;3168;51.684;6.954;2023-02-12T02:38:39;7.40;24.00
6270;DHT22;3168;51.684;6.954;2023-02-12T02:41:05;7.30;24.00
6270;DHT22;3168;51.684;6.954;2023-02-12T02:43:29;7.30;25.00
6270;DHT22;3168;51.684;6.954;2023-02-12T02:45:57;7.30;26.10
6270;DHT22;3168;51.684;6.954;2023-02-12T02:48:23;7.30;26.40
6270;DHT22;3168;51.684;6.954;2023-02-12T02:50:48;7.30;26.70
6270;DHT22;3168;51.684;6.954;2023-02-12T02:53:14;7.30;27.80
6270;DHT22;3168;51.684;6.954;2023-02-12T02:55:41;7.30;26.70
6270;DHT22;3168;51.684;6.954;2023-02-12T02:58:06;7.30;27.60
6270;DHT22;3168;51.684;6.954;2023-02-12T03:00:34;7.30;28.50
6270;DHT22;3168;51.684;6.954;2023-02-12T03:02:59;7.30;27.60
6270;DHT22;3168;51.684;6.954;2023-02-12T03:05:28;7.30;27.80
6270;DHT22;3168;51.684;6.954;2023-02-12T03:07:53;7.30;28.00
6270;DHT22;3168;51.684;6.954;2023-02-12T03:10:19;7.30;28.10
6270;DHT22;3168;51.684;6.954;2023-02-12T03:12:52;7.30;27.70
6270;DHT22;3168;51.684;6.954;2023-02-12T03:15:26;7.20;27.70
6270;DHT22;3168;51.684;6.954;2023-02-12T03:17:49;7.20;28.80
6270;DHT22;3168;51.684;6.954;2023-02-12T03:20:18;7.20;29.40
6270;DHT22;3168;51.684;6.954;2023-02-12T03:22:45;7.20;29.40
6270;DHT22;3168;51.684;6.954;2023-02-12T03:25:13;7.20;31.50
6270;DHT22;3168;51.684;6.954;2023-02-12T03:27:41;7.30;31.30
6270;DHT22;3168;51.684;6.954;2023-02-12T03:30:06;7.30;29.60
6270;DHT22;3168;51.684;6.954;2023-02-12T03:32:39;7.30;27.80
6270;DHT22;3168;51.684;6.954;2023-02-12T03:35:13;7.30;26.20
6270;DHT22;3168;51.684;6.954;2023-02-12T03:37:37;7.30;27.60
6270;DHT22;3168;51.684;6.954;2023-02-12T03:40:18;7.20;27.60
6270;DHT22;3168;51.684;6.954;2023-02-12T03:42:53;7.20;27.80
6270;DHT22;3168;51.684;6.954;2023-02-12T03:45:21;7.20;28.20
6270;DHT22;3168;51.684;6.954;2023-02-12T03:47:47;7.20;29.80
6270;DHT22;3168;51.684;6.954;2023-02-12T03:50:35;7.20;32.40
6270;DHT22;3168;51.684;6.954;2023-02-12T03:52:57;7.20;31.90
6270;DHT22;3168;51.684;6.954;2023-02-12T03:55:23;7.20;31.40
6270;DHT22;3168;51.684;6.954;2023-02-12T03:57:51;7.20;30.10
6270;DHT22;3168;51.684;6.954;2023-02-12T04:00:18;7.20;29.00
6270;DHT22;3168;51.684;6.954;2023-02-12T04:02:42;7.20;27.80
6270;DHT22;3168;51.684;6.954;2023-02-12T04:05:15;7.30;28.00
6270;DHT22;3168;51.684;6.954;2023-02-12T04:07:34;7.20;26.70
6270;DHT22;3168;51.684;6.954;2023-02-12T04:10:00;7.20;27.70
6270;DHT22;3168;51.684;6.954;2023-02-12T04:15:28;7.20;28.10
6270;DHT22;3168;51.684;6.954;2023-02-12T04:21:25;7.20;29.30
6270;DHT22;3168;51.684;6.954;2023-02-12T04:26:36;7.20;30.20
6270;DHT22;3168;51.684;6.954;2023-02-12T04:29:10;7.20;29.10
6270;DHT22;3168;51.684;6.954;2023-02-12T04:31:38;7.10;29.30
6270;DHT22;3168;51.684;6.954;2023-02-12T04:34:07;7.10;31.70
6270;DHT22;3168;51.684;6.954;2023-02-12T04:36:32;7.20;32.90
6270;DHT22;3168;51.684;6.954;2023-02-12T04:38:57;7.10;30.50
6270;DHT22;3168;51.684;6.954;2023-02-12T04:41:23;7.20;29.50
6270;DHT22;3168;51.684;6.954;2023-02-12T04:43:48;7.10;28.30
6270;DHT22;3168;51.684;6.954;2023-02-12T04:46:14;7.10;29.00
6270;DHT22;3168;51.684;6.954;2023-02-12T04:51:21;7.20;29.50
6270;DHT22;3168;51.684;6.954;2023-02-12T04:53:47;7.20;28.20
6270;DHT22;3168;51.684;6.954;2023-02-12T04:56:13;7.10;27.70
6270;DHT22;3168;51.684;6.954;2023-02-12T04:58:39;7.10;28.60
6270;DHT22;3168;51.684;6.954;2023-02-12T05:01:05;7.10;28.80
6270;DHT22;3168;51.684;6.954;2023-02-12T05:03:30;7.10;28.50
6270;DHT22;3168;51.684;6.954;2023-02-12T05:06:00;7.10;28.80
6270;DHT22;3168;51.684;6.954;2023-02-12T05:08:22;7.10;29.40
6270;DHT22;3168;51.684;6.954;2023-02-12T05:10:48;7.10;29.40
6270;DHT22;3168;51.684;6.954;2023-02-12T05:13:14;7.10;29.50
6270;DHT22;3168;51.684;6.954;2023-02-12T05:15:40;7.10;29.60
6270;DHT22;3168;51.684;6.954;2023-02-12T05:18:06;7.10;30.20
6270;DHT22;3168;51.684;6.954;2023-02-12T05:20:32;7.10;27.80
6270;DHT22;3168;51.684;6.954;2023-02-12T05:22:58;7.10;27.70
6270;DHT22;3168;51.684;6.954;2023-02-12T05:25:24;7.00;27.60
6270;DHT22;3168;51.684;6.954;2023-02-12T05:27:50;7.10;28.50
6270;DHT22;3168;51.684;6.954;2023-02-12T05:30:16;7.10;28.70
6270;DHT22;3168;51.684;6.954;2023-02-12T05:32:42;7.10;27.90
6270;DHT22;3168;51.684;6.954;2023-02-12T05:35:08;7.00;27.50
6270;DHT22;3168;51.684;6.954;2023-02-12T05:37:34;7.10;27.60
6270;DHT22;3168;51.684;6.954;2023-02-12T05:39:59;7.10;27.50
6270;DHT22;3168;51.684;6.954;2023-02-12T05:42:25;7.00;27.50
6270;DHT22;3168;51.684;6.954;2023-02-12T05:44:51;7.00;27.90
6270;DHT22;3168;51.684;6.954;2023-02-12T05:47:17;7.00;29.10
6270;DHT22;3168;51.684;6.954;2023-02-12T05:49:43;7.10;29.30
6270;DHT22;3168;51.684;6.954;2023-02-12T05:52:08;7.10;28.50
6270;DHT22;3168;51.684;6.954;2023-02-12T05:54:34;7.10;27.70
6270;DHT22;3168;51.684;6.954;2023-02-12T05:57:00;7.00;28.10
6270;DHT22;3168;51.684;6.954;2023-02-12T05:59:26;7.10;27.60
6270;DHT22;3168;51.684;6.954;2023-02-12T06:01:52;7.00;27.70
6270;DHT22;3168;51.684;6.954;2023-02-12T06:04:18;7.00;27.60
6270;DHT22;3168;51.684;6.954;2023-02-12T06:06:43;7.00;27.90
6270;DHT22;3168;51.684;6.954;2023-02-12T06:09:09;7.00;28.80
6270;DHT22;3168;51.684;6.954;2023-02-12T06:11:35;7.00;27.60
6270;DHT22;3168;51.684;6.954;2023-02-12T06:14:01;7.00;27.80
6270;DHT22;3168;51.684;6.954;2023-02-12T06:16:27;7.00;29.20
6270;DHT22;3168;51.684;6.954;2023-02-12T06:18:52;7.00;30.20
6270;DHT22;3168;51.684;6.954;2023-02-12T06:21:19;7.00;29.20
6270;DHT22;3168;51.684;6.954;2023-02-12T06:23:45;7.00;29.10
6270;DHT22;3168;51.684;6.954;2023-02-12T06:26:11;7.00;29.20
6270;DHT22;3168;51.684;6.954;2023-02-12T06:28:36;7.00;27.90
6270;DHT22;3168;51.684;6.954;2023-02-12T06:31:02;7.00;28.50
6270;DHT22;3168;51.684;6.954;2023-02-12T06:33:28;7.00;27.40
6270;DHT22;3168;51.684;6.954;2023-02-12T06:35:54;7.00;26.50
6270;DHT22;3168;51.684;6.954;2023-02-12T06:38:20;7.00;25.60
6270;DHT22;3168;51.684;6.954;2023-02-12T06:40:46;6.90;26.00
6270;DHT22;3168;51.684;6.954;2023-02-12T06:43:11;6.90;26.80
6270;DHT22;3168;51.684;6.954;2023-02-12T06:45:37;6.90;27.50
6270;DHT22;3168;51.684;6.954;2023-02-12T06:48:03;6.90;27.80
6270;DHT22;3168;51.684;6.954;2023-02-12T06:50:29;6.90;27.50
6270;DHT22;3168;51.684;6.954;2023-02-12T06:52:56;6.90;27.80
6270;DHT22;3168;51.684;6.954;2023-02-12T06:55:21;6.90;27.60
6270;DHT22;3168;51.684;6.954;2023-02-12T06:57:47;6.90;29.00
6270;DHT22;3168;51.684;6.954;2023-02-12T07:00:13;7.00;28.30
6270;DHT22;3168;51.684;6.954;2023-02-12T07:02:39;6.90;27.70
6270;DHT22;3168;51.684;6.954;2023-02-12T07:05:05;7.00;27.10
6270;DHT22;3168;51.684;6.954;2023-02-12T07:07:30;6.90;27.00
6270;DHT22;3168;51.684;6.954;2023-02-12T07:09:56;6.90;27.10
6270;DHT22;3168;51.684;6.954;2023-02-12T07:12:22;7.00;27.50
6270;DHT22;3168;51.684;6.954;2023-02-12T07:14:48;7.00;27.00
6270;DHT22;3168;51.684;6.954;2023-02-12T07:17:14;7.00;26.60
6270;DHT22;3168;51.684;6.954;2023-02-12T07:19:39;7.10;23.90
6270;DHT22;3168;51.684;6.954;2023-02-12T07:22:05;7.00;21.70
6270;DHT22;3168;51.684;6.954;2023-02-12T07:24:31;7.00;21.30
6270;DHT22;3168;51.684;6.954;2023-02-12T07:26:57;7.00;20.00
6270;DHT22;3168;51.684;6.954;2023-02-12T07:29:23;7.00;19.90
6270;DHT22;3168;51.684;6.954;2023-02-12T07:31:49;7.20;20.70
6270;DHT22;3168;51.684;6.954;2023-02-12T07:34:16;7.20;16.60
6270;DHT22;3168;51.684;6.954;2023-02-12T07:36:41;7.20;16.70
6270;DHT22;3168;51.684;6.954;2023-02-12T07:39:09;7.10;16.00
6270;DHT22;3168;51.684;6.954;2023-02-12T07:41:34;7.10;16.00
6270;DHT22;3168;51.684;6.954;2023-02-12T07:44:02;7.20;16.10
6270;DHT22;3168;51.684;6.954;2023-02-12T07:46:28;7.20;15.90
6270;DHT22;3168;51.684;6.954;2023-02-12T07:48:55;7.20;14.40
6270;DHT22;3168;51.684;6.954;2023-02-12T07:51:20;7.30;14.50
6270;DHT22;3168;51.684;6.954;2023-02-12T07:53:46;7.40;12.10
6270;DHT22;3168;51.684;6.954;2023-02-12T07:56:14;7.40;8.20
6270;DHT22;3168;51.684;6.954;2023-02-12T07:58:39;7.40;4.90
6270;DHT22;3168;51.684;6.954;2023-02-12T08:01:12;7.40;3.30
6270;DHT22;3168;51.684;6.954;2023-02-12T08:03:37;7.50;1.50
6270;DHT22;3168;51.684;6.954;2023-02-12T08:06:08;7.50;1.00
6270;DHT22;3168;51.684;6.954;2023-02-12T08:08:33;7.50;1.00
6270;DHT22;3168;51.684;6.954;2023-02-12T08:10:59;7.40;1.00
6270;DHT22;3168;51.684;6.954;2023-02-12T08:13:25;7.40;1.00
6270;DHT22;3168;51.684;6.954;2023-02-12T08:15:58;7.50;1.00
6270;DHT22;3168;51.684;6.954;2023-02-12T08:18:16;7.50;1.00
6270;DHT22;3168;51.684;6.954;2023-02-12T08:20:42;7.50;1.00
6270;DHT22;3168;51.684;6.954;2023-02-12T08:23:08;7.60;1.00
6270;DHT22;3168;51.684;6.954;2023-02-12T08:25:34;7.60;1.00
6270;DHT22;3168;51.684;6.954;2023-02-12T08:28:00;7.70;1.00
6270;DHT22;3168;51.684;6.954;2023-02-12T08:30:25;7.70;1.00
6270;DHT22;3168;51.684;6.954;2023-02-12T08:32:51;7.80;1.00
6270;DHT22;3168;51.684;6.954;2023-02-12T08:35:17;7.90;1.00
6270;DHT22;3168;51.684;6.954;2023-02-12T08:37:43;7.80;1.00
6270;DHT22;3168;51.684;6.954;2023-02-12T08:40:09;7.80;1.00
6270;DHT22;3168;51.684;6.954;2023-02-12T08:42:35;7.90;1.00
6270;DHT22;3168;51.684;6.954;2023-02-12T08:45:01;7.90;1.00
6270;DHT22;3168;51.684;6.954;2023-02-12T08:47:28;8.00;1.00
6270;DHT22;3168;51.684;6.954;2023-02-12T08:49:54;8.00;1.00
6270;DHT22;3168;51.684;6.954;2023-02-12T08:52:19;8.10;1.00
6270;DHT22;3168;51.684;6.954;2023-02-12T08:54:46;8.10;1.00
6270;DHT22;3168;51.684;6.954;2023-02-12T08:57:12;8.10;1.00
6270;DHT22;3168;51.684;6.954;2023-02-12T08:59:38;8.10;1.00
6270;DHT22;3168;51.684;6.954;2023-02-12T09:02:03;8.20;1.00
6270;DHT22;3168;51.684;6.954;2023-02-12T09:04:29;8.20;1.00
6270;DHT22;3168;51.684;6.954;2023-02-12T09:06:55;8.30;1.00
6270;DHT22;3168;51.684;6.954;2023-02-12T09:09:21;8.30;1.00
6270;DHT22;3168;51.684;6.954;2023-02-12T09:11:47;8.20;1.00
6270;DHT22;3168;51.684;6.954;2023-02-12T09:14:14;8.20;1.00
6270;DHT22;3168;51.684;6.954;2023-02-12T09:16:39;8.30;1.00
6270;DHT22;3168;51.684;6.954;2023-02-12T09:19:04;8.40;1.00
6270;DHT22;3168;51.684;6.954;2023-02-12T09:21:30;8.40;1.00
6270;DHT22;3168;51.684;6.954;2023-02-12T09:23:56;8.40;1.00
6270;DHT22;3168;51.684;6.954;2023-02-12T09:26:22;8.40;1.00
6270;DHT22;3168;51.684;6.954;2023-02-12T09:28:48;8.60;1.00
6270;DHT22;3168;51.684;6.954;2023-02-12T09:31:15;8.70;1.00
6270;DHT22;3168;51.684;6.954;2023-02-12T09:33:41;8.80;1.00
6270;DHT22;3168;51.684;6.954;2023-02-12T09:36:08;8.80;1.00
6270;DHT22;3168;51.684;6.954;2023-02-12T09:38:33;8.80;1.00
6270;DHT22;3168;51.684;6.954;2023-02-12T09:41:10;8.80;1.00
6270;DHT22;3168;51.684;6.954;2023-02-12T09:48:53;8.90;1.00
6270;DHT22;3168;51.684;6.954;2023-02-12T09:51:15;9.00;1.00
6270;DHT22;3168;51.684;6.954;2023-02-12T09:53:42;9.00;1.00
6270;DHT22;3168;51.684;6.954;2023-02-12T09:56:11;9.10;1.00
6270;DHT22;3168;51.684;6.954;2023-02-12T09:58:35;9.20;1.00
6270;DHT22;3168;51.684;6.954;2023-02-12T10:01:00;9.20;1.00
6270;DHT22;3168;51.684;6.954;2023-02-12T10:03:26;9.10;1.00
6270;DHT22;3168;51.684;6.954;2023-02-12T10:05:55;9.10;1.00
6270;DHT22;3168;51.684;6.954;2023-02-12T10:08:43;9.10;1.00
6270;DHT22;3168;51.684;6.954;2023-02-12T10:11:14;9.00;1.00
6270;DHT22;3168;51.684;6.954;2023-02-12T10:13:47;9.10;1.00
6270;DHT22;3168;51.684;6.954;2023-02-12T10:19:19;9.50;1.00
6270;DHT22;3168;51.684;6.954;2023-02-12T10:22:09;9.50;1.00
6270;DHT22;3168;51.684;6.954;2023-02-12T10:24:43;9.60;1.00
6270;DHT22;3168;51.684;6.954;2023-02-12T10:27:13;9.60;1.00
6270;DHT22;3168;51.684;6.954;2023-02-12T10:29:38;9.50;1.00
6270;DHT22;3168;51.684;6.954;2023-02-12T10:32:04;9.60;1.00
6270;DHT22;3168;51.684;6.954;2023-02-12T10:34:31;9.80;1.00
6270;DHT22;3168;51.684;6.954;2023-02-12T10:36:57;9.80;1.00
6270;DHT22;3168;51.684;6.954;2023-02-12T10:39:22;9.80;1.00
6270;DHT22;3168;51.684;6.954;2023-02-12T10:41:54;9.80;1.00
6270;DHT22;3168;51.684;6.954;2023-02-12T10:44:17;9.80;1.00
6270;DHT22;3168;51.684;6.954;2023-02-12T10:46:43;9.90;1.00
6270;DHT22;3168;51.684;6.954;2023-02-12T10:49:10;9.80;1.00
6270;DHT22;3168;51.684;6.954;2023-02-12T10:51:39;9.80;1.00
6270;DHT22;3168;51.684;6.954;2023-02-12T10:56:40;9.70;1.00
6270;DHT22;3168;51.684;6.954;2023-02-12T10:59:09;9.80;1.00
6270;DHT22;3168;51.684;6.954;2023-02-12T11:01:33;9.90;1.00
6270;DHT22;3168;51.684;6.954;2023-02-12T11:03:58;10.00;1.00
6270;DHT22;3168;51.684;6.954;2023-02-12T11:06:26;10.00;1.00
6270;DHT22;3168;51.684;6.954;2023-02-12T11:08:51;10.10;1.00
6270;DHT22;3168;51.684;6.954;2023-02-12T11:11:23;10.10;1.00
6270;DHT22;3168;51.684;6.954;2023-02-12T11:13:57;10.20;1.00
6270;DHT22;3168;51.684;6.954;2023-02-12T11:16:30;10.10;1.00
6270;DHT22;3168;51.684;6.954;2023-02-12T11:19:06;10.20;1.00
6270;DHT22;3168;51.684;6.954;2023-02-12T11:21:31;10.20;1.00
6270;DHT22;3168;51.684;6.954;2023-02-12T11:23:56;10.20;1.00
6270;DHT22;3168;51.684;6.954;2023-02-12T11:26:23;10.00;1.00
6270;DHT22;3168;51.684;6.954;2023-02-12T11:28:54;9.90;1.00
6270;DHT22;3168;51.684;6.954;2023-02-12T11:31:20;9.90;1.00
6270;DHT22;3168;51.684;6.954;2023-02-12T11:33:45;10.00;1.00
6270;DHT22;3168;51.684;6.954;2023-02-12T11:36:19;10.30;1.00
6270;DHT22;3168;51.684;6.954;2023-02-12T11:38:48;10.50;1.00
6270;DHT22;3168;51.684;6.954;2023-02-12T11:41:22;10.50;1.00
6270;DHT22;3168;51.684;6.954;2023-02-12T11:43:45;10.40;1.00
6270;DHT22;3168;51.684;6.954;2023-02-12T11:46:11;10.50;1.00
6270;DHT22;3168;51.684;6.954;2023-02-12T11:48:38;10.50;1.00
6270;DHT22;3168;51.684;6.954;2023-02-12T11:51:04;10.50;1.00
6270;DHT22;3168;51.684;6.954;2023-02-12T11:53:30;10.50;1.00
6270;DHT22;3168;51.684;6.954;2023-02-12T11:55:57;10.50;1.00
6270;DHT22;3168;51.684;6.954;2023-02-12T11:58:23;10.60;1.00
6270;DHT22;3168;51.684;6.954;2023-02-12T12:00:59;10.60;1.00
6270;DHT22;3168;51.684;6.954;2023-02-12T12:03:28;10.50;1.00
6270;DHT22;3168;51.684;6.954;2023-02-12T12:05:56;10.40;1.00
6270;DHT22;3168;51.684;6.954;2023-02-12T12:08:41;10.60;1.00
6270;DHT22;3168;51.684;6.954;2023-02-12T12:11:13;10.60;1.00
6270;DHT22;3168;51.684;6.954;2023-02-12T12:13:39;10.70;1.00
6270;DHT22;3168;51.684;6.954;2023-02-12T12:16:08;10.70;1.00
6270;DHT22;3168;51.684;6.954;2023-02-12T12:18:44;10.80;1.00
6270;DHT22;3168;51.684;6.954;2023-02-12T12:21:19;10.70;1.00
6270;DHT22;3168;51.684;6.954;2023-02-12T12:23:43;10.70;1.00
6270;DHT22;3168;51.684;6.954;2023-02-12T12:26:14;10.50;1.00
6270;DHT22;3168;51.684;6.954;2023-02-12T12:28:42;10.50;1.00
6270;DHT22;3168;51.684;6.954;2023-02-12T12:31:22;10.60;1.00
6270;DHT22;3168;51.684;6.954;2023-02-12T12:34:10;10.70;1.00
6270;DHT22;3168;51.684;6.954;2023-02-12T12:36:48;10.60;1.00
6270;DHT22;3168;51.684;6.954;2023-02-12T12:42:19;10.50;1.00
6270;DHT22;3168;51.684;6.954;2023-02-12T12:50:48;10.50;1.00
6270;DHT22;3168;51.684;6.954;2023-02-12T12:53:21;10.40;1.00
6270;DHT22;3168;51.684;6.954;2023-02-12T12:55:53;10.50;1.00
6270;DHT22;3168;51.684;6.954;2023-02-12T12:58:30;10.30;1.00
6270;DHT22;3168;51.684;6.954;2023-02-12T13:03:41;10.30;1.00
6270;DHT22;3168;51.684;6.954;2023-02-12T13:06:13;10.40;1.00
6270;DHT22;3168;51.684;6.954;2023-02-12T13:08:55;10.40;1.00
6270;DHT22;3168;51.684;6.954;2023-02-12T13:13:52;10.40;1.00
6270;DHT22;3168;51.684;6.954;2023-02-12T13:16:35;10.50;1.00
6270;DHT22;3168;51.684;6.954;2023-02-12T13:19:24;10.30;1.00
6270;DHT22;3168;51.684;6.954;2023-02-12T13:21:54;10.20;1.00
6270;DHT22;3168;51.684;6.954;2023-02-12T13:26:56;10.00;1.00
6270;DHT22;3168;51.684;6.954;2023-02-12T13:29:28;10.00;1.00
6270;DHT22;3168;51.684;6.954;2023-02-12T13:32:12;10.10;1.00
6270;DHT22;3168;51.684;6.954;2023-02-12T13:34:35;10.20;1.00
6270;DHT22;3168;51.684;6.954;2023-02-12T13:37:01;10.20;1.00
6270;DHT22;3168;51.684;6.954;2023-02-12T13:39:31;10.10;1.00
6270;DHT22;3168;51.684;6.954;2023-02-12T13:42:00;10.20;1.00
6270;DHT22;3168;51.684;6.954;2023-02-12T13:44:29;10.20;1.00
6270;DHT22;3168;51.684;6.954;2023-02-12T13:46:59;10.30;1.00
6270;DHT22;3168;51.684;6.954;2023-02-12T13:49:32;10.30;1.00
6270;DHT22;3168;51.684;6.954;2023-02-12T13:51:58;10.30;1.00
6270;DHT22;3168;51.684;6.954;2023-02-12T13:54:29;10.20;1.00
6270;DHT22;3168;51.684;6.954;2023-02-12T13:56:51;10.20;1.00
6270;DHT22;3168;51.684;6.954;2023-02-12T14:01:54;10.20;1.00
6270;DHT22;3168;51.684;6.954;2023-02-12T14:04:40;10.10;1.00
6270;DHT22;3168;51.684;6.954;2023-02-12T14:07:08;9.90;1.00
6270;DHT22;3168;51.684;6.954;2023-02-12T14:09:36;10.00;1.00
6270;DHT22;3168;51.684;6.954;2023-02-12T14:12:01;10.00;1.00
6270;DHT22;3168;51.684;6.954;2023-02-12T14:14:37;9.90;1.00
6270;DHT22;3168;51.684;6.954;2023-02-12T14:20:29;9.80;1.00
6270;DHT22;3168;51.684;6.954;2023-02-12T14:23:01;9.70;1.00
6270;DHT22;3168;51.684;6.954;2023-02-12T14:25:31;9.70;1.00
6270;DHT22;3168;51.684;6.954;2023-02-12T14:27:57;9.70;1.00
6270;DHT22;3168;51.684;6.954;2023-02-12T14:30:26;9.80;1.00
6270;DHT22;3168;51.684;6.954;2023-02-12T14:35:41;9.80;1.00
6270;DHT22;3168;51.684;6.954;2023-02-12T14:39:00;9.70;1.00
6270;DHT22;3168;51.684;6.954;2023-02-12T14:41:22;9.90;1.00
6270;DHT22;3168;51.684;6.954;2023-02-12T14:43:42;9.80;1.00
6270;DHT22;3168;51.684;6.954;2023-02-12T14:46:54;9.80;1.00
6270;DHT22;3168;51.684;6.954;2023-02-12T14:49:02;9.70;1.00
6270;DHT22;3168;51.684;6.954;2023-02-12T14:51:37;9.60;1.00
6270;DHT22;3168;51.684;6.954;2023-02-12T14:54:04;9.70;1.00
6270;DHT22;3168;51.684;6.954;2023-02-12T14:56:29;9.70;1.00
6270;DHT22;3168;51.684;6.954;2023-02-12T14:58:55;9.70;1.00
6270;DHT22;3168;51.684;6.954;2023-02-12T15:01:24;9.60;1.00
6270;DHT22;3168;51.684;6.954;2023-02-12T15:03:49;9.70;1.00
6270;DHT22;3168;51.684;6.954;2023-02-12T15:06:16;9.70;1.00
6270;DHT22;3168;51.684;6.954;2023-02-12T15:08:49;9.60;1.00
6270;DHT22;3168;51.684;6.954;2023-02-12T15:11:37;9.70;1.00
6270;DHT22;3168;51.684;6.954;2023-02-12T15:14:03;9.70;1.00
6270;DHT22;3168;51.684;6.954;2023-02-12T15:16:31;9.60;1.00
6270;DHT22;3168;51.684;6.954;2023-02-12T15:18:57;9.60;1.00
6270;DHT22;3168;51.684;6.954;2023-02-12T15:21:24;9.60;1.00
6270;DHT22;3168;51.684;6.954;2023-02-12T15:24:00;9.60;1.00
6270;DHT22;3168;51.684;6.954;2023-02-12T15:26:23;9.60;1.00
6270;DHT22;3168;51.684;6.954;2023-02-12T15:28:50;9.50;1.00
6270;DHT22;3168;51.684;6.954;2023-02-12T15:31:18;9.60;1.00
6270;DHT22;3168;51.684;6.954;2023-02-12T15:33:44;9.60;1.00
6270;DHT22;3168;51.684;6.954;2023-02-12T15:36:09;9.50;1.00
6270;DHT22;3168;51.684;6.954;2023-02-12T15:38:36;9.50;1.00
6270;DHT22;3168;51.684;6.954;2023-02-12T15:41:02;9.40;1.00
6270;DHT22;3168;51.684;6.954;2023-02-12T15:43:28;9.40;1.00
6270;DHT22;3168;51.684;6.954;2023-02-12T15:45:53;9.40;1.00
6270;DHT22;3168;51.684;6.954;2023-02-12T15:48:21;9.40;1.00
6270;DHT22;3168;51.684;6.954;2023-02-12T15:50:48;9.40;1.00
6270;DHT22;3168;51.684;6.954;2023-02-12T15:53:12;9.40;1.00
6270;DHT22;3168;51.684;6.954;2023-02-12T15:55:38;9.40;1.00
6270;DHT22;3168;51.684;6.954;2023-02-12T15:58:03;9.30;1.00
6270;DHT22;3168;51.684;6.954;2023-02-12T16:00:45;9.30;1.00
6270;DHT22;3168;51.684;6.954;2023-02-12T16:03:25;9.30;1.00
6270;DHT22;3168;51.684;6.954;2023-02-12T16:05:50;9.20;1.00
6270;DHT22;3168;51.684;6.954;2023-02-12T16:08:16;9.20;1.00
6270;DHT22;3168;51.684;6.954;2023-02-12T16:10:43;9.10;1.00
6270;DHT22;3168;51.684;6.954;2023-02-12T16:13:13;9.20;1.00
6270;DHT22;3168;51.684;6.954;2023-02-12T16:15:35;9.20;1.00
6270;DHT22;3168;51.684;6.954;2023-02-12T16:18:03;9.20;1.00
6270;DHT22;3168;51.684;6.954;2023-02-12T16:20:27;9.20;1.00
6270;DHT22;3168;51.684;6.954;2023-02-12T16:22:53;9.20;1.00
6270;DHT22;3168;51.684;6.954;2023-02-12T16:25:24;9.20;1.00
6270;DHT22;3168;51.684;6.954;2023-02-12T16:28:06;9.10;1.00
6270;DHT22;3168;51.684;6.954;2023-02-12T16:30:32;9.10;1.00
6270;DHT22;3168;51.684;6.954;2023-02-12T16:32:58;9.10;1.00
6270;DHT22;3168;51.684;6.954;2023-02-12T16:35:29;9.10;1.00
6270;DHT22;3168;51.684;6.954;2023-02-12T16:38:01;9.10;1.00
6270;DHT22;3168;51.684;6.954;2023-02-12T16:40:27;9.10;1.00
6270;DHT22;3168;51.684;6.954;2023-02-12T16:43:01;9.00;1.00
6270;DHT22;3168;51.684;6.954;2023-02-12T16:45:37;9.00;1.00
6270;DHT22;3168;51.684;6.954;2023-02-12T16:48:16;9.00;1.00
6270;DHT22;3168;51.684;6.954;2023-02-12T16:50:44;9.00;1.00
6270;DHT22;3168;51.684;6.954;2023-02-12T16:55:47;8.90;1.00
6270;DHT22;3168;51.684;6.954;2023-02-12T16:58:12;8.90;1.00
6270;DHT22;3168;51.684;6.954;2023-02-12T17:00:38;8.90;1.00
6270;DHT22;3168;51.684;6.954;2023-02-12T17:03:04;8.90;1.00
6270;DHT22;3168;51.684;6.954;2023-02-12T17:05:30;8.90;1.00
6270;DHT22;3168;51.684;6.954;2023-02-12T17:07:56;8.90;1.00
6270;DHT22;3168;51.684;6.954;2023-02-12T17:10:22;8.90;1.00
6270;DHT22;3168;51.684;6.954;2023-02-12T17:12:48;9.00;1.00
6270;DHT22;3168;51.684;6.954;2023-02-12T17:15:19;9.00;1.00
6270;DHT22;3168;51.684;6.954;2023-02-12T17:17:44;9.00;1.00
6270;DHT22;3168;51.684;6.954;2023-02-12T17:20:10;9.00;1.00
6270;DHT22;3168;51.684;6.954;2023-02-12T17:22:37;9.00;1.00
6270;DHT22;3168;51.684;6.954;2023-02-12T17:25:03;9.00;1.00